sensor_id;sensor_type;location;lat;lon;timestamp;P1;durP1;ratioP1;P2;durP2;ratioP2
26574;SDS011;67165;50.256;10.978;2023-10-08T00:01:03;12.25;;;5.38;;
26574;SDS011;67165;50.256;10.978;2023-10-08T00:03:31;9.00;;;4.63;;
26574;SDS011;67165;50.256;10.978;2023-10-08T00:05:58;9.02;;;4.50;;
26574;SDS011;67165;50.256;10.978;2023-10-08T00:08:31;7.85;;;4.38;;
26574;SDS011;67165;50.256;10.978;2023-10-08T00:10:57;10.05;;;4.70;;
26574;SDS011;67165;50.256;10.978;2023-10-08T00:13:31;12.10;;;4.60;;
26574;SDS011;67165;50.256;10.978;2023-10-08T00:15:57;11.45;;;4.80;;
26574;SDS011;67165;50.256;10.978;2023-10-08T00:18:23;11.57;;;4.55;;
26574;SDS011;67165;50.256;10.978;2023-10-08T00:20:51;8.27;;;4.38;;
26574;SDS011;67165;50.256;10.978;2023-10-08T00:23:24;5.97;;;3.95;;
26574;SDS011;67165;50.256;10.978;2023-10-08T00:25:53;8.35;;;4.20;;
26574;SDS011;67165;50.256;10.978;2023-10-08T00:28:20;9.52;;;4.53;;
26574;SDS011;67165;50.256;10.978;2023-10-08T00:30:46;7.68;;;4.80;;
26574;SDS011;67165;50.256;10.978;2023-10-08T00:33:13;8.30;;;4.15;;
26574;SDS011;67165;50.256;10.978;2023-10-08T00:35:42;8.73;;;4.55;;
26574;SDS011;67165;50.256;10.978;2023-10-08T00:38:11;7.60;;;4.13;;
26574;SDS011;67165;50.256;10.978;2023-10-08T00:40:41;8.85;;;4.45;;
26574;SDS011;67165;50.256;10.978;2023-10-08T00:43:11;10.43;;;4.72;;
26574;SDS011;67165;50.256;10.978;2023-10-08T00:46:03;8.73;;;4.32;;
26574;SDS011;67165;50.256;10.978;2023-10-08T00:48:46;9.60;;;4.38;;
26574;SDS011;67165;50.256;10.978;2023-10-08T00:51:13;14.10;;;5.10;;
26574;SDS011;67165;50.256;10.978;2023-10-08T00:53:52;9.23;;;4.82;;
26574;SDS011;67165;50.256;10.978;2023-10-08T00:56:27;10.50;;;4.22;;
26574;SDS011;67165;50.256;10.978;2023-10-08T01:01:40;11.02;;;4.70;;
26574;SDS011;67165;50.256;10.978;2023-10-08T01:04:19;10.80;;;4.70;;
26574;SDS011;67165;50.256;10.978;2023-10-08T01:06:52;9.30;;;4.68;;
26574;SDS011;67165;50.256;10.978;2023-10-08T01:09:26;7.18;;;4.40;;
26574;SDS011;67165;50.256;10.978;2023-10-08T01:12:18;6.80;;;4.03;;
26574;SDS011;67165;50.256;10.978;2023-10-08T01:15:08;11.30;;;4.45;;
26574;SDS011;67165;50.256;10.978;2023-10-08T01:17:53;8.60;;;4.15;;
26574;SDS011;67165;50.256;10.978;2023-10-08T01:20:28;9.98;;;4.63;;
26574;SDS011;67165;50.256;10.978;2023-10-08T01:23:10;7.28;;;4.28;;
26574;SDS011;67165;50.256;10.978;2023-10-08T01:25:44;10.02;;;4.18;;
26574;SDS011;67165;50.256;10.978;2023-10-08T01:28:16;9.95;;;4.72;;
26574;SDS011;67165;50.256;10.978;2023-10-08T01:30:52;9.75;;;4.63;;
26574;SDS011;67165;50.256;10.978;2023-10-08T01:33:20;8.23;;;4.72;;
26574;SDS011;67165;50.256;10.978;2023-10-08T01:35:53;10.88;;;4.78;;
26574;SDS011;67165;50.256;10.978;2023-10-08T01:38:19;8.40;;;4.60;;
26574;SDS011;67165;50.256;10.978;2023-10-08T01:40:51;10.32;;;4.53;;
26574;SDS011;67165;50.256;10.978;2023-10-08T01:43:17;8.30;;;4.82;;
26574;SDS011;67165;50.256;10.978;2023-10-08T01:45:43;11.90;;;5.03;;
26574;SDS011;67165;50.256;10.978;2023-10-08T01:48:13;11.77;;;4.68;;
26574;SDS011;67165;50.256;10.978;2023-10-08T01:50:41;9.93;;;4.70;;
26574;SDS011;67165;50.256;10.978;2023-10-08T01:53:10;11.88;;;5.18;;
26574;SDS011;67165;50.256;10.978;2023-10-08T01:55:36;10.80;;;4.90;;
26574;SDS011;67165;50.256;10.978;2023-10-08T01:58:12;7.90;;;4.40;;
26574;SDS011;67165;50.256;10.978;2023-10-08T02:00:41;13.93;;;4.63;;
26574;SDS011;67165;50.256;10.978;2023-10-08T02:03:10;9.27;;;5.15;;
26574;SDS011;67165;50.256;10.978;2023-10-08T02:05:37;10.77;;;5.10;;
26574;SDS011;67165;50.256;10.978;2023-10-08T02:08:07;9.18;;;4.85;;
26574;SDS011;67165;50.256;10.978;2023-10-08T02:10:33;9.40;;;4.80;;
26574;SDS011;67165;50.256;10.978;2023-10-08T02:13:00;10.18;;;4.90;;
26574;SDS011;67165;50.256;10.978;2023-10-08T02:15:26;11.63;;;5.07;;
26574;SDS011;67165;50.256;10.978;2023-10-08T02:17:52;8.20;;;4.40;;
26574;SDS011;67165;50.256;10.978;2023-10-08T02:20:20;8.73;;;4.47;;
26574;SDS011;67165;50.256;10.978;2023-10-08T02:22:46;7.95;;;4.45;;
26574;SDS011;67165;50.256;10.978;2023-10-08T02:25:14;10.88;;;4.93;;
26574;SDS011;67165;50.256;10.978;2023-10-08T02:27:40;11.50;;;4.82;;
26574;SDS011;67165;50.256;10.978;2023-10-08T02:30:07;8.77;;;4.45;;
26574;SDS011;67165;50.256;10.978;2023-10-08T02:32:35;11.05;;;5.32;;
26574;SDS011;67165;50.256;10.978;2023-10-08T02:35:02;10.57;;;4.80;;
26574;SDS011;67165;50.256;10.978;2023-10-08T02:37:28;11.55;;;4.72;;
26574;SDS011;67165;50.256;10.978;2023-10-08T02:39:53;8.60;;;4.70;;
26574;SDS011;67165;50.256;10.978;2023-10-08T02:42:19;9.02;;;4.25;;
26574;SDS011;67165;50.256;10.978;2023-10-08T02:44:46;8.98;;;4.53;;
26574;SDS011;67165;50.256;10.978;2023-10-08T02:47:12;11.23;;;4.53;;
26574;SDS011;67165;50.256;10.978;2023-10-08T02:49:47;12.88;;;5.10;;
26574;SDS011;67165;50.256;10.978;2023-10-08T02:52:17;7.50;;;4.18;;
26574;SDS011;67165;50.256;10.978;2023-10-08T02:54:43;9.05;;;4.80;;
26574;SDS011;67165;50.256;10.978;2023-10-08T02:57:08;12.73;;;4.82;;
26574;SDS011;67165;50.256;10.978;2023-10-08T02:59:39;10.02;;;4.70;;
26574;SDS011;67165;50.256;10.978;2023-10-08T03:02:10;8.20;;;5.00;;
26574;SDS011;67165;50.256;10.978;2023-10-08T03:04:43;8.60;;;5.03;;
26574;SDS011;67165;50.256;10.978;2023-10-08T03:07:16;9.82;;;4.90;;
26574;SDS011;67165;50.256;10.978;2023-10-08T03:09:51;9.48;;;4.93;;
26574;SDS011;67165;50.256;10.978;2023-10-08T03:12:29;10.38;;;4.65;;
26574;SDS011;67165;50.256;10.978;2023-10-08T03:14:58;9.10;;;4.97;;
26574;SDS011;67165;50.256;10.978;2023-10-08T03:17:42;10.80;;;5.10;;
26574;SDS011;67165;50.256;10.978;2023-10-08T03:20:17;10.15;;;4.55;;
26574;SDS011;67165;50.256;10.978;2023-10-08T03:23:04;13.65;;;5.00;;
26574;SDS011;67165;50.256;10.978;2023-10-08T03:25:55;8.45;;;5.05;;
26574;SDS011;67165;50.256;10.978;2023-10-08T03:28:26;8.48;;;4.80;;
26574;SDS011;67165;50.256;10.978;2023-10-08T03:31:00;10.90;;;5.05;;
26574;SDS011;67165;50.256;10.978;2023-10-08T03:33:42;10.48;;;5.10;;
26574;SDS011;67165;50.256;10.978;2023-10-08T03:36:14;10.63;;;4.88;;
26574;SDS011;67165;50.256;10.978;2023-10-08T03:38:46;11.98;;;5.32;;
26574;SDS011;67165;50.256;10.978;2023-10-08T03:41:16;14.20;;;5.53;;
26574;SDS011;67165;50.256;10.978;2023-10-08T03:43:43;8.73;;;5.05;;
26574;SDS011;67165;50.256;10.978;2023-10-08T03:46:20;10.45;;;5.20;;
26574;SDS011;67165;50.256;10.978;2023-10-08T03:48:48;11.25;;;5.35;;
26574;SDS011;67165;50.256;10.978;2023-10-08T03:51:16;11.13;;;5.53;;
26574;SDS011;67165;50.256;10.978;2023-10-08T03:53:46;11.52;;;4.82;;
26574;SDS011;67165;50.256;10.978;2023-10-08T03:56:31;10.02;;;4.68;;
26574;SDS011;67165;50.256;10.978;2023-10-08T03:59:01;8.55;;;4.97;;
26574;SDS011;67165;50.256;10.978;2023-10-08T04:01:45;10.32;;;4.97;;
26574;SDS011;67165;50.256;10.978;2023-10-08T04:04:14;11.00;;;5.93;;
26574;SDS011;67165;50.256;10.978;2023-10-08T04:06:40;11.80;;;5.25;;
26574;SDS011;67165;50.256;10.978;2023-10-08T04:09:17;11.38;;;5.20;;
26574;SDS011;67165;50.256;10.978;2023-10-08T04:11:49;9.57;;;4.97;;
26574;SDS011;67165;50.256;10.978;2023-10-08T04:14:18;9.13;;;4.95;;
26574;SDS011;67165;50.256;10.978;2023-10-08T04:16:45;12.75;;;5.22;;
26574;SDS011;67165;50.256;10.978;2023-10-08T04:19:11;12.43;;;5.20;;
26574;SDS011;67165;50.256;10.978;2023-10-08T04:21:37;11.38;;;5.20;;
26574;SDS011;67165;50.256;10.978;2023-10-08T04:24:07;10.93;;;5.13;;
26574;SDS011;67165;50.256;10.978;2023-10-08T04:26:36;13.35;;;5.72;;
26574;SDS011;67165;50.256;10.978;2023-10-08T04:29:04;17.27;;;5.70;;
26574;SDS011;67165;50.256;10.978;2023-10-08T04:31:31;8.95;;;5.43;;
26574;SDS011;67165;50.256;10.978;2023-10-08T04:34:05;13.50;;;6.53;;
26574;SDS011;67165;50.256;10.978;2023-10-08T04:36:47;11.02;;;6.03;;
26574;SDS011;67165;50.256;10.978;2023-10-08T04:39:19;12.15;;;6.75;;
26574;SDS011;67165;50.256;10.978;2023-10-08T04:41:51;15.10;;;6.47;;
26574;SDS011;67165;50.256;10.978;2023-10-08T04:44:24;10.73;;;5.75;;
26574;SDS011;67165;50.256;10.978;2023-10-08T04:46:51;11.93;;;5.80;;
26574;SDS011;67165;50.256;10.978;2023-10-08T04:49:18;11.85;;;6.03;;
26574;SDS011;67165;50.256;10.978;2023-10-08T04:52:11;11.90;;;5.63;;
26574;SDS011;67165;50.256;10.978;2023-10-08T04:54:40;11.50;;;5.90;;
26574;SDS011;67165;50.256;10.978;2023-10-08T04:57:16;12.90;;;5.50;;
26574;SDS011;67165;50.256;10.978;2023-10-08T04:59:42;12.75;;;5.50;;
26574;SDS011;67165;50.256;10.978;2023-10-08T05:02:08;11.10;;;5.55;;
26574;SDS011;67165;50.256;10.978;2023-10-08T05:07:41;13.95;;;5.53;;
26574;SDS011;67165;50.256;10.978;2023-10-08T05:10:10;10.75;;;5.80;;
26574;SDS011;67165;50.256;10.978;2023-10-08T05:12:51;11.30;;;5.65;;
26574;SDS011;67165;50.256;10.978;2023-10-08T05:15:31;11.45;;;6.22;;
26574;SDS011;67165;50.256;10.978;2023-10-08T05:18:07;11.55;;;5.53;;
26574;SDS011;67165;50.256;10.978;2023-10-08T05:20:48;13.13;;;5.38;;
26574;SDS011;67165;50.256;10.978;2023-10-08T05:23:14;8.77;;;5.20;;
26574;SDS011;67165;50.256;10.978;2023-10-08T05:25:51;10.43;;;5.38;;
26574;SDS011;67165;50.256;10.978;2023-10-08T05:28:34;9.02;;;5.05;;
26574;SDS011;67165;50.256;10.978;2023-10-08T05:31:32;14.18;;;4.85;;
26574;SDS011;67165;50.256;10.978;2023-10-08T05:34:08;9.25;;;5.35;;
26574;SDS011;67165;50.256;10.978;2023-10-08T05:36:43;12.13;;;5.55;;
26574;SDS011;67165;50.256;10.978;2023-10-08T05:39:16;13.07;;;5.78;;
26574;SDS011;67165;50.256;10.978;2023-10-08T05:42:09;10.30;;;5.35;;
26574;SDS011;67165;50.256;10.978;2023-10-08T05:44:57;16.58;;;5.47;;
26574;SDS011;67165;50.256;10.978;2023-10-08T05:47:35;13.70;;;5.68;;
26574;SDS011;67165;50.256;10.978;2023-10-08T05:50:01;11.77;;;5.78;;
26574;SDS011;67165;50.256;10.978;2023-10-08T05:55:21;19.48;;;7.07;;
26574;SDS011;67165;50.256;10.978;2023-10-08T05:57:53;13.52;;;6.28;;
26574;SDS011;67165;50.256;10.978;2023-10-08T06:00:38;14.95;;;6.57;;
26574;SDS011;67165;50.256;10.978;2023-10-08T06:03:19;11.85;;;6.15;;
26574;SDS011;67165;50.256;10.978;2023-10-08T06:06:04;15.07;;;5.95;;
26574;SDS011;67165;50.256;10.978;2023-10-08T06:08:40;11.18;;;6.07;;
26574;SDS011;67165;50.256;10.978;2023-10-08T06:11:25;11.00;;;5.95;;
26574;SDS011;67165;50.256;10.978;2023-10-08T06:14:09;10.43;;;5.57;;
26574;SDS011;67165;50.256;10.978;2023-10-08T06:17:01;11.02;;;5.93;;
26574;SDS011;67165;50.256;10.978;2023-10-08T06:19:41;11.07;;;5.55;;
26574;SDS011;67165;50.256;10.978;2023-10-08T06:22:08;12.02;;;5.45;;
26574;SDS011;67165;50.256;10.978;2023-10-08T06:24:34;12.88;;;5.60;;
26574;SDS011;67165;50.256;10.978;2023-10-08T06:27:03;13.20;;;5.78;;
26574;SDS011;67165;50.256;10.978;2023-10-08T06:29:30;12.75;;;5.60;;
26574;SDS011;67165;50.256;10.978;2023-10-08T06:31:56;14.35;;;5.35;;
26574;SDS011;67165;50.256;10.978;2023-10-08T06:34:27;13.35;;;5.47;;
26574;SDS011;67165;50.256;10.978;2023-10-08T06:36:53;11.00;;;5.40;;
26574;SDS011;67165;50.256;10.978;2023-10-08T06:39:23;8.40;;;4.75;;
26574;SDS011;67165;50.256;10.978;2023-10-08T06:42:12;10.48;;;5.45;;
26574;SDS011;67165;50.256;10.978;2023-10-08T06:44:40;11.73;;;5.60;;
26574;SDS011;67165;50.256;10.978;2023-10-08T06:47:08;11.75;;;5.88;;
26574;SDS011;67165;50.256;10.978;2023-10-08T06:49:34;9.75;;;5.40;;
26574;SDS011;67165;50.256;10.978;2023-10-08T06:52:01;11.23;;;5.43;;
26574;SDS011;67165;50.256;10.978;2023-10-08T06:54:27;13.15;;;5.82;;
26574;SDS011;67165;50.256;10.978;2023-10-08T06:56:55;12.15;;;5.60;;
26574;SDS011;67165;50.256;10.978;2023-10-08T06:59:21;11.80;;;5.10;;
26574;SDS011;67165;50.256;10.978;2023-10-08T07:01:47;14.65;;;5.93;;
26574;SDS011;67165;50.256;10.978;2023-10-08T07:04:16;11.50;;;5.70;;
26574;SDS011;67165;50.256;10.978;2023-10-08T07:06:43;11.65;;;5.70;;
26574;SDS011;67165;50.256;10.978;2023-10-08T07:09:11;10.18;;;5.30;;
26574;SDS011;67165;50.256;10.978;2023-10-08T07:11:53;10.65;;;5.13;;
26574;SDS011;67165;50.256;10.978;2023-10-08T07:14:27;10.50;;;5.38;;
26574;SDS011;67165;50.256;10.978;2023-10-08T07:16:57;8.85;;;4.93;;
26574;SDS011;67165;50.256;10.978;2023-10-08T07:19:24;11.90;;;5.20;;
26574;SDS011;67165;50.256;10.978;2023-10-08T07:21:58;11.82;;;5.35;;
26574;SDS011;67165;50.256;10.978;2023-10-08T07:24:28;11.98;;;5.28;;
26574;SDS011;67165;50.256;10.978;2023-10-08T07:26:56;8.90;;;5.07;;
26574;SDS011;67165;50.256;10.978;2023-10-08T07:29:21;10.63;;;5.57;;
26574;SDS011;67165;50.256;10.978;2023-10-08T07:31:47;15.02;;;5.22;;
26574;SDS011;67165;50.256;10.978;2023-10-08T07:34:18;10.23;;;4.75;;
26574;SDS011;67165;50.256;10.978;2023-10-08T07:36:51;11.18;;;5.03;;
26574;SDS011;67165;50.256;10.978;2023-10-08T07:39:18;12.15;;;5.45;;
26574;SDS011;67165;50.256;10.978;2023-10-08T07:41:54;12.07;;;5.32;;
26574;SDS011;67165;50.256;10.978;2023-10-08T07:44:23;13.05;;;4.90;;
26574;SDS011;67165;50.256;10.978;2023-10-08T07:46:51;8.52;;;4.72;;
26574;SDS011;67165;50.256;10.978;2023-10-08T07:49:21;12.95;;;5.18;;
26574;SDS011;67165;50.256;10.978;2023-10-08T07:51:57;12.00;;;4.95;;
26574;SDS011;67165;50.256;10.978;2023-10-08T07:54:24;9.88;;;4.70;;
26574;SDS011;67165;50.256;10.978;2023-10-08T07:56:54;11.52;;;4.90;;
26574;SDS011;67165;50.256;10.978;2023-10-08T07:59:40;9.02;;;4.85;;
26574;SDS011;67165;50.256;10.978;2023-10-08T08:02:07;9.60;;;5.05;;
26574;SDS011;67165;50.256;10.978;2023-10-08T08:04:35;9.35;;;4.50;;
26574;SDS011;67165;50.256;10.978;2023-10-08T08:07:03;11.45;;;5.22;;
26574;SDS011;67165;50.256;10.978;2023-10-08T08:09:29;11.82;;;5.35;;
26574;SDS011;67165;50.256;10.978;2023-10-08T08:11:55;12.68;;;5.35;;
26574;SDS011;67165;50.256;10.978;2023-10-08T08:14:22;12.90;;;5.50;;
26574;SDS011;67165;50.256;10.978;2023-10-08T08:16:50;9.52;;;5.35;;
26574;SDS011;67165;50.256;10.978;2023-10-08T08:19:16;8.18;;;4.60;;
26574;SDS011;67165;50.256;10.978;2023-10-08T08:21:49;10.98;;;4.78;;
26574;SDS011;67165;50.256;10.978;2023-10-08T08:24:17;12.32;;;5.03;;
26574;SDS011;67165;50.256;10.978;2023-10-08T08:26:56;12.27;;;5.18;;
26574;SDS011;67165;50.256;10.978;2023-10-08T08:29:36;9.48;;;5.60;;
26574;SDS011;67165;50.256;10.978;2023-10-08T08:32:10;14.35;;;5.13;;
26574;SDS011;67165;50.256;10.978;2023-10-08T08:34:46;12.35;;;5.40;;
26574;SDS011;67165;50.256;10.978;2023-10-08T08:37:15;19.15;;;5.88;;
26574;SDS011;67165;50.256;10.978;2023-10-08T08:39:42;12.15;;;5.18;;
26574;SDS011;67165;50.256;10.978;2023-10-08T08:42:07;11.65;;;5.50;;
26574;SDS011;67165;50.256;10.978;2023-10-08T08:44:37;11.13;;;5.60;;
26574;SDS011;67165;50.256;10.978;2023-10-08T08:47:10;10.85;;;5.15;;
26574;SDS011;67165;50.256;10.978;2023-10-08T08:49:42;14.18;;;5.70;;
26574;SDS011;67165;50.256;10.978;2023-10-08T08:52:08;13.25;;;5.72;;
26574;SDS011;67165;50.256;10.978;2023-10-08T08:54:34;11.18;;;5.40;;
26574;SDS011;67165;50.256;10.978;2023-10-08T08:57:02;13.27;;;5.47;;
26574;SDS011;67165;50.256;10.978;2023-10-08T08:59:38;12.45;;;5.97;;
26574;SDS011;67165;50.256;10.978;2023-10-08T09:02:17;12.50;;;5.35;;
26574;SDS011;67165;50.256;10.978;2023-10-08T09:04:43;12.10;;;5.28;;
26574;SDS011;67165;50.256;10.978;2023-10-08T09:07:11;10.80;;;5.32;;
26574;SDS011;67165;50.256;10.978;2023-10-08T09:09:37;10.73;;;5.40;;
26574;SDS011;67165;50.256;10.978;2023-10-08T09:12:04;9.65;;;6.25;;
26574;SDS011;67165;50.256;10.978;2023-10-08T09:14:33;16.10;;;6.85;;
26574;SDS011;67165;50.256;10.978;2023-10-08T09:16:59;23.77;;;12.95;;
26574;SDS011;67165;50.256;10.978;2023-10-08T09:19:25;17.52;;;11.13;;
26574;SDS011;67165;50.256;10.978;2023-10-08T09:22:07;17.70;;;8.48;;
26574;SDS011;67165;50.256;10.978;2023-10-08T09:24:35;13.77;;;6.38;;
26574;SDS011;67165;50.256;10.978;2023-10-08T09:27:06;11.80;;;6.30;;
26574;SDS011;67165;50.256;10.978;2023-10-08T09:29:33;11.75;;;6.35;;
26574;SDS011;67165;50.256;10.978;2023-10-08T09:32:05;7.78;;;4.47;;
26574;SDS011;67165;50.256;10.978;2023-10-08T09:34:31;7.57;;;4.00;;
26574;SDS011;67165;50.256;10.978;2023-10-08T09:36:58;4.80;;;2.80;;
26574;SDS011;67165;50.256;10.978;2023-10-08T09:39:26;4.47;;;2.38;;
26574;SDS011;67165;50.256;10.978;2023-10-08T09:41:57;3.38;;;1.95;;
26574;SDS011;67165;50.256;10.978;2023-10-08T09:44:24;1.85;;;1.70;;
26574;SDS011;67165;50.256;10.978;2023-10-08T09:46:54;1.67;;;1.50;;
26574;SDS011;67165;50.256;10.978;2023-10-08T09:49:40;2.92;;;1.40;;
26574;SDS011;67165;50.256;10.978;2023-10-08T09:52:13;1.90;;;1.30;;
26574;SDS011;67165;50.256;10.978;2023-10-08T09:54:43;1.40;;;1.08;;
26574;SDS011;67165;50.256;10.978;2023-10-08T09:57:21;1.45;;;1.10;;
26574;SDS011;67165;50.256;10.978;2023-10-08T09:59:51;1.23;;;1.10;;
26574;SDS011;67165;50.256;10.978;2023-10-08T10:02:18;1.30;;;1.20;;
26574;SDS011;67165;50.256;10.978;2023-10-08T10:04:49;0.73;;;0.70;;
26574;SDS011;67165;50.256;10.978;2023-10-08T10:07:17;1.67;;;1.00;;
26574;SDS011;67165;50.256;10.978;2023-10-08T10:09:46;1.10;;;1.00;;
26574;SDS011;67165;50.256;10.978;2023-10-08T10:12:18;1.80;;;1.00;;
26574;SDS011;67165;50.256;10.978;2023-10-08T10:14:50;1.52;;;1.13;;
26574;SDS011;67165;50.256;10.978;2023-10-08T10:17:22;1.90;;;1.10;;
26574;SDS011;67165;50.256;10.978;2023-10-08T10:22:29;2.28;;;1.40;;
26574;SDS011;67165;50.256;10.978;2023-10-08T10:24:59;1.55;;;1.40;;
26574;SDS011;67165;50.256;10.978;2023-10-08T10:27:40;2.40;;;1.45;;
26574;SDS011;67165;50.256;10.978;2023-10-08T10:30:07;1.73;;;1.30;;
26574;SDS011;67165;50.256;10.978;2023-10-08T10:32:34;1.20;;;1.10;;
26574;SDS011;67165;50.256;10.978;2023-10-08T10:35:00;2.30;;;1.10;;
26574;SDS011;67165;50.256;10.978;2023-10-08T10:37:28;1.00;;;1.00;;
26574;SDS011;67165;50.256;10.978;2023-10-08T10:40:06;1.10;;;0.98;;
26574;SDS011;67165;50.256;10.978;2023-10-08T10:42:36;1.63;;;0.80;;
26574;SDS011;67165;50.256;10.978;2023-10-08T10:45:11;1.45;;;0.70;;
26574;SDS011;67165;50.256;10.978;2023-10-08T10:47:58;0.90;;;0.90;;
26574;SDS011;67165;50.256;10.978;2023-10-08T10:50:36;1.67;;;0.98;;
26574;SDS011;67165;50.256;10.978;2023-10-08T10:53:13;0.77;;;0.63;;
26574;SDS011;67165;50.256;10.978;2023-10-08T10:55:39;0.80;;;0.60;;
26574;SDS011;67165;50.256;10.978;2023-10-08T10:58:13;0.75;;;0.75;;
26574;SDS011;67165;50.256;10.978;2023-10-08T11:00:43;0.68;;;0.68;;
26574;SDS011;67165;50.256;10.978;2023-10-08T11:03:09;0.60;;;0.60;;
26574;SDS011;67165;50.256;10.978;2023-10-08T11:05:41;0.50;;;0.50;;
26574;SDS011;67165;50.256;10.978;2023-10-08T11:08:19;0.72;;;0.44;;
26574;SDS011;67165;50.256;10.978;2023-10-08T11:10:48;0.50;;;0.50;;
26574;SDS011;67165;50.256;10.978;2023-10-08T11:13:16;0.90;;;0.70;;
26574;SDS011;67165;50.256;10.978;2023-10-08T11:15:44;0.47;;;0.47;;
26574;SDS011;67165;50.256;10.978;2023-10-08T11:18:17;1.15;;;0.60;;
26574;SDS011;67165;50.256;10.978;2023-10-08T11:20:48;2.17;;;1.67;;
26574;SDS011;67165;50.256;10.978;2023-10-08T11:23:36;0.63;;;0.60;;
26574;SDS011;67165;50.256;10.978;2023-10-08T11:26:03;1.15;;;1.00;;
26574;SDS011;67165;50.256;10.978;2023-10-08T11:28:34;0.98;;;0.88;;
26574;SDS011;67165;50.256;10.978;2023-10-08T11:31:06;1.40;;;1.20;;
26574;SDS011;67165;50.256;10.978;2023-10-08T11:33:37;1.02;;;0.90;;
26574;SDS011;67165;50.256;10.978;2023-10-08T11:36:04;0.90;;;0.73;;
26574;SDS011;67165;50.256;10.978;2023-10-08T11:38:43;1.15;;;0.82;;
26574;SDS011;67165;50.256;10.978;2023-10-08T11:41:18;1.05;;;0.85;;
26574;SDS011;67165;50.256;10.978;2023-10-08T11:43:51;1.00;;;0.68;;
26574;SDS011;67165;50.256;10.978;2023-10-08T11:46:26;0.50;;;0.50;;
26574;SDS011;67165;50.256;10.978;2023-10-08T11:48:58;0.73;;;0.70;;
26574;SDS011;67165;50.256;10.978;2023-10-08T11:51:30;0.90;;;0.80;;
26574;SDS011;67165;50.256;10.978;2023-10-08T11:54:05;1.00;;;0.80;;
26574;SDS011;67165;50.256;10.978;2023-10-08T11:56:31;1.00;;;0.80;;
26574;SDS011;67165;50.256;10.978;2023-10-08T11:58:58;1.25;;;1.10;;
26574;SDS011;67165;50.256;10.978;2023-10-08T12:01:26;1.60;;;0.80;;
26574;SDS011;67165;50.256;10.978;2023-10-08T12:03:55;1.25;;;0.75;;
26574;SDS011;67165;50.256;10.978;2023-10-08T12:06:24;0.85;;;0.80;;
26574;SDS011;67165;50.256;10.978;2023-10-08T12:08:54;1.30;;;0.60;;
26574;SDS011;67165;50.256;10.978;2023-10-08T12:11:23;0.60;;;0.60;;
26574;SDS011;67165;50.256;10.978;2023-10-08T12:13:56;0.85;;;0.77;;
26574;SDS011;67165;50.256;10.978;2023-10-08T12:16:24;1.58;;;0.75;;
26574;SDS011;67165;50.256;10.978;2023-10-08T12:18:54;1.75;;;0.80;;
26574;SDS011;67165;50.256;10.978;2023-10-08T12:21:24;1.55;;;0.93;;
26574;SDS011;67165;50.256;10.978;2023-10-08T12:23:50;1.27;;;0.68;;
26574;SDS011;67165;50.256;10.978;2023-10-08T12:26:17;2.90;;;1.60;;
26574;SDS011;67165;50.256;10.978;2023-10-08T12:28:49;0.75;;;0.75;;
26574;SDS011;67165;50.256;10.978;2023-10-08T12:31:15;1.00;;;0.88;;
26574;SDS011;67165;50.256;10.978;2023-10-08T12:33:42;0.68;;;0.57;;
26574;SDS011;67165;50.256;10.978;2023-10-08T12:36:08;0.80;;;0.80;;
26574;SDS011;67165;50.256;10.978;2023-10-08T12:38:36;1.08;;;0.68;;
26574;SDS011;67165;50.256;10.978;2023-10-08T12:41:02;0.90;;;0.80;;
26574;SDS011;67165;50.256;10.978;2023-10-08T12:46:07;1.40;;;0.60;;
26574;SDS011;67165;50.256;10.978;2023-10-08T12:48:43;1.80;;;0.60;;
26574;SDS011;67165;50.256;10.978;2023-10-08T12:51:17;3.50;;;0.70;;
26574;SDS011;67165;50.256;10.978;2023-10-08T12:53:43;2.15;;;0.70;;
26574;SDS011;67165;50.256;10.978;2023-10-08T12:56:30;1.15;;;0.70;;
26574;SDS011;67165;50.256;10.978;2023-10-08T12:59:10;1.20;;;0.57;;
26574;SDS011;67165;50.256;10.978;2023-10-08T13:01:45;0.88;;;0.70;;
26574;SDS011;67165;50.256;10.978;2023-10-08T13:04:16;0.55;;;0.55;;
26574;SDS011;67165;50.256;10.978;2023-10-08T13:06:50;0.55;;;0.55;;
26574;SDS011;67165;50.256;10.978;2023-10-08T13:09:16;1.42;;;0.68;;
26574;SDS011;67165;50.256;10.978;2023-10-08T13:11:42;0.65;;;0.60;;
26574;SDS011;67165;50.256;10.978;2023-10-08T13:14:08;0.50;;;0.50;;
26574;SDS011;67165;50.256;10.978;2023-10-08T13:16:33;3.30;;;0.90;;
26574;SDS011;67165;50.256;10.978;2023-10-08T13:19:02;1.23;;;0.80;;
26574;SDS011;67165;50.256;10.978;2023-10-08T13:21:29;2.45;;;1.00;;
26574;SDS011;67165;50.256;10.978;2023-10-08T13:23:56;1.27;;;1.00;;
26574;SDS011;67165;50.256;10.978;2023-10-08T13:26:24;3.47;;;0.82;;
26574;SDS011;67165;50.256;10.978;2023-10-08T13:28:56;0.88;;;0.80;;
26574;SDS011;67165;50.256;10.978;2023-10-08T13:31:23;2.95;;;0.80;;
26574;SDS011;67165;50.256;10.978;2023-10-08T13:33:50;2.38;;;1.40;;
26574;SDS011;67165;50.256;10.978;2023-10-08T13:36:17;2.63;;;1.50;;
26574;SDS011;67165;50.256;10.978;2023-10-08T13:38:43;1.20;;;1.10;;
26574;SDS011;67165;50.256;10.978;2023-10-08T13:41:12;2.65;;;1.05;;
26574;SDS011;67165;50.256;10.978;2023-10-08T13:43:45;1.30;;;0.90;;
26574;SDS011;67165;50.256;10.978;2023-10-08T13:46:12;0.93;;;0.88;;
26574;SDS011;67165;50.256;10.978;2023-10-08T13:48:43;2.28;;;1.10;;
26574;SDS011;67165;50.256;10.978;2023-10-08T13:51:14;1.25;;;1.15;;
26574;SDS011;67165;50.256;10.978;2023-10-08T13:53:48;1.20;;;1.10;;
26574;SDS011;67165;50.256;10.978;2023-10-08T13:56:28;1.83;;;1.10;;
26574;SDS011;67165;50.256;10.978;2023-10-08T13:59:00;1.30;;;1.20;;
26574;SDS011;67165;50.256;10.978;2023-10-08T14:01:38;2.30;;;1.15;;
26574;SDS011;67165;50.256;10.978;2023-10-08T14:04:10;1.52;;;1.17;;
26574;SDS011;67165;50.256;10.978;2023-10-08T14:06:38;1.20;;;1.10;;
26574;SDS011;67165;50.256;10.978;2023-10-08T14:09:07;2.45;;;1.10;;
26574;SDS011;67165;50.256;10.978;2023-10-08T14:11:37;0.93;;;0.93;;
26574;SDS011;67165;50.256;10.978;2023-10-08T14:14:03;1.40;;;0.80;;
26574;SDS011;67165;50.256;10.978;2023-10-08T14:16:35;1.38;;;0.90;;
26574;SDS011;67165;50.256;10.978;2023-10-08T14:19:02;1.15;;;1.05;;
26574;SDS011;67165;50.256;10.978;2023-10-08T14:21:30;1.38;;;1.20;;
26574;SDS011;67165;50.256;10.978;2023-10-08T14:24:01;1.20;;;1.00;;
26574;SDS011;67165;50.256;10.978;2023-10-08T14:26:30;3.45;;;1.40;;
26574;SDS011;67165;50.256;10.978;2023-10-08T14:29:02;1.67;;;1.25;;
26574;SDS011;67165;50.256;10.978;2023-10-08T14:31:40;1.17;;;1.00;;
26574;SDS011;67165;50.256;10.978;2023-10-08T14:34:13;1.17;;;0.98;;
26574;SDS011;67165;50.256;10.978;2023-10-08T14:36:45;1.50;;;0.90;;
26574;SDS011;67165;50.256;10.978;2023-10-08T14:39:31;1.05;;;0.82;;
26574;SDS011;67165;50.256;10.978;2023-10-08T14:42:16;1.25;;;0.93;;
26574;SDS011;67165;50.256;10.978;2023-10-08T14:47:26;1.40;;;1.00;;
26574;SDS011;67165;50.256;10.978;2023-10-08T14:49:52;1.73;;;1.10;;
26574;SDS011;67165;50.256;10.978;2023-10-08T14:52:17;2.45;;;1.00;;
26574;SDS011;67165;50.256;10.978;2023-10-08T14:54:44;1.17;;;0.98;;
26574;SDS011;67165;50.256;10.978;2023-10-08T14:57:10;1.40;;;1.20;;
26574;SDS011;67165;50.256;10.978;2023-10-08T14:59:39;1.25;;;1.15;;
26574;SDS011;67165;50.256;10.978;2023-10-08T15:02:08;1.67;;;1.27;;
26574;SDS011;67165;50.256;10.978;2023-10-08T15:04:36;3.85;;;1.20;;
26574;SDS011;67165;50.256;10.978;2023-10-08T15:07:04;5.72;;;2.28;;
26574;SDS011;67165;50.256;10.978;2023-10-08T15:09:34;3.20;;;2.22;;